Terminal Aerodrome Forecast
Issued by NWS

Home | Current Version | Previous Version | Text Only | Print | Product List | Glossary Off
Versions: 1 2 3 4 5 6 7 8 9 10 11 12 13 14 15 16

133
FTUS43 KICT 211136
TAFHUT
TAF
KHUT 211136Z 2112/2212 15008KT 6SM BR BKN120
     FM211400 19012KT P6SM BKN140
     FM212200 20012KT P6SM BKN035
     FM220100 25010KT P6SM BKN035
     FM220500 28011KT P6SM BKN035
     FM220700 30014KT P6SM BKN010=

USA.gov is the U.S. government's official web portal to all federal, state and local government web resources and services.